createdAt,value
2022-08-10T00:01:07.924Z,1.40
2022-08-10T00:03:34.613Z,1.30
2022-08-10T00:06:01.278Z,1.48
2022-08-10T00:08:27.896Z,1.23
2022-08-10T00:10:55.416Z,1.38
2022-08-10T00:13:22.582Z,1.45
2022-08-10T00:15:54.224Z,1.30
2022-08-10T00:18:35.277Z,1.40
2022-08-10T00:21:06.889Z,1.48
2022-08-10T00:23:34.143Z,1.48
2022-08-10T00:26:00.815Z,1.30
2022-08-10T00:28:27.482Z,1.30
2022-08-10T00:30:54.165Z,1.40
2022-08-10T00:33:20.851Z,1.30
2022-08-10T00:35:47.575Z,1.40
2022-08-10T00:38:14.226Z,1.15
2022-08-10T00:40:40.811Z,1.42
2022-08-10T00:43:07.479Z,1.25
2022-08-10T00:45:34.862Z,1.38
2022-08-10T00:48:01.472Z,1.33
2022-08-10T00:50:28.081Z,1.63
2022-08-10T00:52:54.818Z,1.33
2022-08-10T00:55:21.519Z,1.33
2022-08-10T00:57:55.417Z,1.33
2022-08-10T01:00:23.518Z,1.40
2022-08-10T01:02:50.365Z,1.40
2022-08-10T01:05:17.316Z,1.40
2022-08-10T01:08:02.844Z,1.40
2022-08-10T01:10:43.691Z,1.50
2022-08-10T01:13:10.125Z,1.20
2022-08-10T01:15:58.394Z,1.38
2022-08-10T01:18:33.764Z,1.40
2022-08-10T01:21:21.828Z,1.25
2022-08-10T01:24:06.996Z,1.40
2022-08-10T01:27:07.318Z,1.40
2022-08-10T01:30:09.325Z,1.35
2022-08-10T01:33:06.246Z,1.30
2022-08-10T01:36:05.485Z,1.33
2022-08-10T01:38:33.860Z,1.52
2022-08-10T01:41:06.600Z,1.42
2022-08-10T01:43:34.879Z,1.30
2022-08-10T01:46:01.766Z,1.40
2022-08-10T01:48:40.310Z,1.45
2022-08-10T01:51:18.787Z,1.38
2022-08-10T01:53:56.609Z,1.50
2022-08-10T01:56:24.608Z,1.30
2022-08-10T01:58:59.084Z,1.30
2022-08-10T02:01:27.758Z,1.33
2022-08-10T02:04:04.457Z,1.40
2022-08-10T02:06:32.394Z,1.20
2022-08-10T02:09:06.545Z,1.42
2022-08-10T02:12:06.827Z,1.50
2022-08-10T02:14:21.738Z,1.52
2022-08-10T02:16:50.666Z,1.40
2022-08-10T02:19:18.672Z,1.40
2022-08-10T02:22:09.503Z,1.35
2022-08-10T02:24:33.235Z,1.40
2022-08-10T02:27:00.022Z,1.30
2022-08-10T02:29:26.683Z,1.70
2022-08-10T02:31:53.313Z,1.33
2022-08-10T02:34:20.888Z,1.50
2022-08-10T02:36:49.551Z,1.70
2022-08-10T02:39:16.671Z,1.45
2022-08-10T02:45:12.179Z,1.50
2022-08-10T02:45:20.129Z,1.30
2022-08-10T02:47:57.535Z,1.58
2022-08-10T02:50:27.801Z,1.60
2022-08-10T02:53:55.168Z,1.48
2022-08-10T02:56:51.679Z,1.60
2022-08-10T02:59:40.436Z,1.60
2022-08-10T03:02:09.626Z,1.70
2022-08-10T03:04:55.185Z,1.38
2022-08-10T03:07:43.495Z,1.30
2022-08-10T03:10:22.251Z,1.45
2022-08-10T03:12:58.273Z,1.50
2022-08-10T03:15:25.014Z,1.35
2022-08-10T03:17:57.930Z,1.35
2022-08-10T03:20:38.144Z,1.27
2022-08-10T03:23:16.253Z,1.60
2022-08-10T03:25:53.798Z,1.50
2022-08-10T03:28:22.638Z,1.40
2022-08-10T03:30:49.299Z,1.45
2022-08-10T03:33:15.974Z,1.63
2022-08-10T03:35:42.533Z,1.33
2022-08-10T03:38:29.240Z,1.48
2022-08-10T03:40:57.169Z,1.40
2022-08-10T03:43:23.806Z,1.20
2022-08-10T03:45:55.515Z,1.60
2022-08-10T03:48:23.593Z,1.58
2022-08-10T03:50:54.967Z,1.40
2022-08-10T03:53:25.298Z,1.60
2022-08-10T03:56:28.982Z,1.60
2022-08-10T03:58:54.745Z,1.70
2022-08-10T04:01:21.437Z,1.42
2022-08-10T04:04:11.773Z,1.42
2022-08-10T04:06:41.275Z,1.45
2022-08-10T04:09:07.886Z,1.63
2022-08-10T04:11:34.498Z,1.50
2022-08-10T04:14:01.114Z,1.40
2022-08-10T04:16:27.707Z,1.30
2022-08-10T04:18:54.495Z,1.60
2022-08-10T04:21:23.625Z,1.38
2022-08-10T04:23:53.175Z,1.60
2022-08-10T04:26:19.956Z,1.58
2022-08-10T04:28:46.551Z,1.38
2022-08-10T04:31:13.191Z,1.25
2022-08-10T04:33:41.463Z,1.20
2022-08-10T04:36:08.426Z,1.58
2022-08-10T04:38:35.381Z,1.63
2022-08-10T04:41:01.960Z,1.55
2022-08-10T04:43:28.587Z,1.70
2022-08-10T04:45:55.691Z,1.45
2022-08-10T04:48:42.780Z,1.38
2022-08-10T04:51:18.703Z,1.60
2022-08-10T04:54:04.944Z,1.40
2022-08-10T04:56:37.217Z,1.33
2022-08-10T04:59:04.974Z,1.60
2022-08-10T05:02:12.334Z,1.30
2022-08-10T05:04:36.445Z,1.58
2022-08-10T05:07:09.450Z,1.42
2022-08-10T05:10:01.050Z,1.48
2022-08-10T05:12:23.825Z,1.52
2022-08-10T05:14:50.403Z,1.30
2022-08-10T05:17:17.089Z,1.50
2022-08-10T05:20:04.201Z,1.52
2022-08-10T05:22:30.265Z,1.52
2022-08-10T05:24:56.956Z,1.60
2022-08-10T05:27:23.603Z,1.38
2022-08-10T05:30:01.239Z,1.50
2022-08-10T05:32:29.714Z,1.42
2022-08-10T05:34:56.265Z,1.52
2022-08-10T05:38:13.196Z,1.30
2022-08-10T05:40:09.877Z,1.35
2022-08-10T05:42:36.641Z,1.60
2022-08-10T05:45:04.192Z,1.27
2022-08-10T05:48:55.411Z,1.35
2022-08-10T05:50:18.829Z,1.45
2022-08-10T05:52:45.519Z,1.40
2022-08-10T05:55:12.163Z,1.30
2022-08-10T05:57:38.743Z,1.40
2022-08-10T06:00:12.704Z,1.23
2022-08-10T06:02:59.286Z,1.20
2022-08-10T06:05:29.796Z,1.25
2022-08-10T06:08:08.997Z,1.23
2022-08-10T06:10:35.900Z,1.40
2022-08-10T06:13:29.745Z,1.50
2022-08-10T06:15:59.108Z,1.40
2022-08-10T06:18:25.737Z,1.23
2022-08-10T06:20:52.384Z,1.30
2022-08-10T06:23:18.960Z,1.70
2022-08-10T06:26:11.842Z,1.40
2022-08-10T06:28:33.548Z,1.20
2022-08-10T06:31:00.475Z,1.35
2022-08-10T06:33:27.009Z,1.25
2022-08-10T06:35:55.080Z,1.48
2022-08-10T06:38:23.757Z,1.50
2022-08-10T06:40:50.369Z,1.38
2022-08-10T06:43:18.692Z,1.17
2022-08-10T06:46:07.164Z,2.28
2022-08-10T06:48:41.616Z,1.50
2022-08-10T06:51:11.850Z,1.50
2022-08-10T06:53:53.061Z,1.30
2022-08-10T06:56:37.869Z,1.30
2022-08-10T07:01:51.256Z,1.20
2022-08-10T07:04:32.416Z,1.10
2022-08-10T07:07:04.443Z,1.23
2022-08-10T07:09:32.358Z,1.25
2022-08-10T07:12:08.304Z,1.27
2022-08-10T07:14:44.332Z,1.30
2022-08-10T07:17:15.718Z,1.30
2022-08-10T07:19:49.977Z,1.60
2022-08-10T07:23:26.875Z,1.20
2022-08-10T07:25:07.834Z,1.45
2022-08-10T07:27:39.275Z,1.55
2022-08-10T07:30:21.364Z,1.60
2022-08-10T07:32:48.822Z,1.30
2022-08-10T07:35:15.929Z,1.40
2022-08-10T07:37:42.658Z,1.60
2022-08-10T07:40:09.437Z,1.35
2022-08-10T07:42:37.125Z,1.52
2022-08-10T07:45:06.006Z,1.40
2022-08-10T07:47:46.114Z,1.25
2022-08-10T07:50:21.072Z,1.25
2022-08-10T07:52:47.861Z,1.20
2022-08-10T07:55:16.627Z,1.50
2022-08-10T07:57:43.541Z,1.20
2022-08-10T08:00:10.753Z,1.50
2022-08-10T08:02:39.992Z,1.60
2022-08-10T08:05:08.316Z,1.27
2022-08-10T08:07:35.634Z,1.20
2022-08-10T08:10:02.347Z,1.13
2022-08-10T08:12:31.481Z,1.08
2022-08-10T08:15:01.530Z,0.77
2022-08-10T08:17:48.749Z,1.17
2022-08-10T08:20:26.364Z,1.13
2022-08-10T08:24:05.068Z,1.00
2022-08-10T08:25:41.925Z,1.10
2022-08-10T08:28:09.159Z,1.10
2022-08-10T08:30:35.752Z,1.20
2022-08-10T08:33:02.351Z,1.10
2022-08-10T08:35:28.990Z,1.02
2022-08-10T08:38:32.593Z,1.05
2022-08-10T08:40:44.280Z,0.98
2022-08-10T08:43:32.646Z,1.02
2022-08-10T08:46:02.420Z,0.85
2022-08-10T08:48:52.013Z,0.75
2022-08-10T08:52:17.180Z,0.95
2022-08-10T08:54:34.150Z,0.90
2022-08-10T08:57:08.019Z,0.93
2022-08-10T08:59:58.898Z,1.03
2022-08-10T09:03:02.823Z,1.00
2022-08-10T09:05:59.717Z,1.00
2022-08-10T09:08:55.963Z,0.80
2022-08-10T09:11:37.012Z,1.10
2022-08-10T09:14:17.349Z,0.85
2022-08-10T09:17:00.572Z,1.00
2022-08-10T09:19:36.492Z,0.90
2022-08-10T09:22:17.440Z,0.75
2022-08-10T09:25:08.545Z,1.00
2022-08-10T09:27:49.650Z,0.90
2022-08-10T09:30:18.837Z,0.93
2022-08-10T09:36:23.356Z,0.77
2022-08-10T09:36:26.174Z,0.90
2022-08-10T09:40:58.321Z,0.85
2022-08-10T09:42:33.385Z,0.80
2022-08-10T09:45:03.504Z,0.90
2022-08-10T09:47:58.530Z,1.10
2022-08-10T09:51:05.425Z,0.70
2022-08-10T09:53:35.557Z,0.82
2022-08-10T09:56:21.417Z,0.80
2022-08-10T09:59:29.323Z,0.90
2022-08-10T10:02:14.739Z,0.70
2022-08-10T10:04:43.192Z,0.77
2022-08-10T10:07:10.677Z,0.75
2022-08-10T10:10:08.284Z,0.82
2022-08-10T10:13:07.304Z,0.70
2022-08-10T10:15:59.542Z,0.60
2022-08-10T10:18:29.155Z,0.70
2022-08-10T10:21:09.549Z,0.70
2022-08-10T10:24:21.619Z,0.50
2022-08-10T10:26:58.026Z,0.70
2022-08-10T10:29:57.483Z,0.70
2022-08-10T10:32:44.170Z,0.82
2022-08-10T10:35:30.215Z,0.75
2022-08-10T10:38:02.134Z,0.60
2022-08-10T10:40:53.153Z,0.68
2022-08-10T10:43:25.754Z,0.80
2022-08-10T10:46:23.488Z,0.60
2022-08-10T10:49:01.063Z,0.77
2022-08-10T10:51:34.211Z,0.70
2022-08-10T10:54:03.303Z,0.82
2022-08-10T10:56:39.457Z,0.80
2022-08-10T10:59:55.016Z,0.75
2022-08-10T11:03:01.331Z,0.80
2022-08-10T11:05:38.147Z,0.85
2022-08-10T11:08:09.205Z,0.88
2022-08-10T11:10:53.415Z,0.65
2022-08-10T11:14:25.928Z,1.00
2022-08-10T11:16:39.526Z,0.80
2022-08-10T11:19:21.581Z,0.77
2022-08-10T11:22:06.967Z,0.63
2022-08-10T11:25:10.545Z,0.85
2022-08-10T11:27:52.349Z,0.65
2022-08-10T11:30:21.230Z,0.70
2022-08-10T11:33:03.962Z,0.70
2022-08-10T11:35:50.632Z,0.70
2022-08-10T11:38:42.886Z,0.80
2022-08-10T11:42:10.242Z,0.88
2022-08-10T11:44:32.680Z,0.60
2022-08-10T11:47:10.663Z,0.80
2022-08-10T11:50:04.804Z,0.75
2022-08-10T11:52:59.316Z,1.15
2022-08-10T11:55:30.613Z,0.90
2022-08-10T11:58:01.744Z,0.82
2022-08-10T12:00:32.572Z,0.60
2022-08-10T12:03:02.097Z,0.70
2022-08-10T12:05:51.983Z,0.70
2022-08-10T12:10:05.959Z,0.70
2022-08-10T12:11:25.167Z,0.73
2022-08-10T12:14:20.387Z,0.60
2022-08-10T12:16:48.828Z,0.63
2022-08-10T12:19:23.755Z,0.70
2022-08-10T12:21:59.998Z,0.70
2022-08-10T12:24:39.976Z,0.73
2022-08-10T12:27:34.426Z,0.68
2022-08-10T12:30:06.219Z,0.82
2022-08-10T12:32:38.886Z,0.70
2022-08-10T12:35:26.387Z,0.77
2022-08-10T12:38:23.252Z,0.70
2022-08-10T12:41:00.161Z,0.82
2022-08-10T12:44:07.186Z,0.70
2022-08-10T12:46:40.307Z,0.70
2022-08-10T12:49:30.389Z,0.65
2022-08-10T12:52:03.005Z,0.93
2022-08-10T12:54:32.380Z,0.90
2022-08-10T12:57:02.222Z,0.80
2022-08-10T12:59:28.864Z,0.98
2022-08-10T13:02:09.919Z,0.90
2022-08-10T13:04:38.377Z,0.90
2022-08-10T13:07:05.527Z,0.70
2022-08-10T13:09:32.464Z,0.73
2022-08-10T13:12:39.354Z,0.60
2022-08-10T13:14:57.826Z,0.77
2022-08-10T13:17:38.751Z,0.88
2022-08-10T13:20:28.193Z,0.70
2022-08-10T13:22:56.893Z,0.80
2022-08-10T13:25:31.788Z,1.10
2022-08-10T13:28:37.897Z,0.93
2022-08-10T13:30:50.725Z,0.82
2022-08-10T13:34:40.599Z,0.90
2022-08-10T13:36:05.952Z,0.80
2022-08-10T13:38:32.682Z,0.90
2022-08-10T13:40:59.425Z,0.80
2022-08-10T13:43:26.088Z,0.90
2022-08-10T13:45:52.948Z,1.00
2022-08-10T13:48:22.940Z,0.98
2022-08-10T13:50:50.784Z,1.00
2022-08-10T13:53:17.586Z,0.90
2022-08-10T13:55:55.380Z,1.05
2022-08-10T13:58:37.107Z,0.90
2022-08-10T14:01:17.491Z,0.90
2022-08-10T14:03:44.576Z,1.10
2022-08-10T14:06:12.854Z,0.70
2022-08-10T14:08:39.658Z,0.65
2022-08-10T14:11:11.797Z,1.00
2022-08-10T14:13:58.863Z,0.73
2022-08-10T14:16:25.843Z,0.90
2022-08-10T14:18:54.367Z,0.82
2022-08-10T14:21:21.202Z,0.70
2022-08-10T14:23:52.876Z,0.70
2022-08-10T14:26:28.442Z,0.85
2022-08-10T14:29:19.954Z,0.60
2022-08-10T14:32:01.721Z,0.82
2022-08-10T14:34:59.544Z,0.70
2022-08-10T14:37:23.000Z,0.93
2022-08-10T14:40:04.845Z,1.00
2022-08-10T14:42:35.567Z,0.68
2022-08-10T14:45:33.041Z,0.80
2022-08-10T14:48:06.050Z,0.80
2022-08-10T14:50:34.266Z,0.90
2022-08-10T14:53:14.904Z,0.77
2022-08-10T14:55:58.930Z,0.60
2022-08-10T14:58:59.357Z,0.90
2022-08-10T15:02:01.424Z,0.65
2022-08-10T15:04:24.882Z,1.05
2022-08-10T15:06:54.184Z,1.00
2022-08-10T15:09:24.162Z,0.80
2022-08-10T15:12:12.933Z,0.70
2022-08-10T15:14:45.037Z,0.80
2022-08-10T15:17:15.467Z,0.90
2022-08-10T15:20:02.957Z,0.88
2022-08-10T15:22:37.502Z,0.90
2022-08-10T15:25:05.305Z,0.60
2022-08-10T15:27:55.029Z,0.70
2022-08-10T15:30:29.599Z,0.80
2022-08-10T15:32:58.261Z,0.88
2022-08-10T15:35:27.995Z,0.77
2022-08-10T15:38:00.954Z,0.77
2022-08-10T15:40:32.308Z,0.60
2022-08-10T15:43:05.544Z,0.80
2022-08-10T15:45:54.546Z,0.60
2022-08-10T15:48:21.508Z,0.60
2022-08-10T15:50:49.674Z,0.57
2022-08-10T15:53:48.984Z,0.65
2022-08-10T15:56:31.407Z,0.82
2022-08-10T15:59:08.019Z,0.90
2022-08-10T16:02:14.811Z,0.60
2022-08-10T16:04:46.604Z,0.80
2022-08-10T16:07:18.580Z,0.70
2022-08-10T16:10:26.381Z,0.77
2022-08-10T16:12:42.176Z,0.75
2022-08-10T16:15:15.259Z,0.80
2022-08-10T16:17:57.632Z,0.63
2022-08-10T16:20:55.085Z,0.68
2022-08-10T16:23:26.022Z,1.00
2022-08-10T16:26:03.003Z,0.60
2022-08-10T16:28:35.084Z,0.77
2022-08-10T16:31:03.976Z,0.70
2022-08-10T16:33:54.514Z,0.77
2022-08-10T16:36:18.987Z,0.82
2022-08-10T16:38:48.135Z,1.10
2022-08-10T16:42:02.160Z,1.00
2022-08-10T16:44:01.474Z,0.65
2022-08-10T16:46:28.199Z,0.75
2022-08-10T16:48:54.810Z,0.85
2022-08-10T16:51:21.619Z,0.82
2022-08-10T16:53:48.771Z,0.77
2022-08-10T16:56:15.496Z,0.90
2022-08-10T16:58:44.438Z,0.80
2022-08-10T17:01:10.987Z,1.00
2022-08-10T17:04:06.253Z,0.80
2022-08-10T17:06:35.641Z,0.70
2022-08-10T17:09:04.001Z,0.80
2022-08-10T17:11:32.666Z,0.90
2022-08-10T17:14:07.609Z,0.75
2022-08-10T17:16:43.554Z,0.93
2022-08-10T17:19:14.617Z,0.90
2022-08-10T17:21:50.979Z,1.00
2022-08-10T17:24:20.358Z,1.20
2022-08-10T17:26:47.102Z,0.75
2022-08-10T17:29:59.160Z,0.70
2022-08-10T17:32:19.944Z,0.75
2022-08-10T17:34:48.374Z,0.88
2022-08-10T17:37:19.047Z,0.90
2022-08-10T17:39:58.156Z,0.80
2022-08-10T17:42:24.880Z,0.77
2022-08-10T17:44:53.010Z,0.80
2022-08-10T17:47:19.954Z,0.80
2022-08-10T17:49:46.631Z,0.93
2022-08-10T17:52:19.673Z,0.90
2022-08-10T17:54:46.370Z,0.90
2022-08-10T17:57:20.016Z,0.85
2022-08-10T17:59:47.453Z,1.10
2022-08-10T18:02:19.300Z,1.00
2022-08-10T18:04:59.071Z,1.10
2022-08-10T18:07:37.055Z,0.90
2022-08-10T18:10:04.557Z,0.80
2022-08-10T18:12:38.776Z,0.98
2022-08-10T18:15:13.758Z,1.00
2022-08-10T18:17:43.462Z,0.90
2022-08-10T18:20:11.049Z,1.00
2022-08-10T18:22:43.392Z,0.90
2022-08-10T18:25:20.937Z,1.00
2022-08-10T18:28:03.679Z,1.30
2022-08-10T18:30:33.084Z,0.90
2022-08-10T18:33:03.513Z,1.10
2022-08-10T18:35:35.074Z,1.00
2022-08-10T18:38:01.973Z,0.98
2022-08-10T18:40:36.613Z,1.02
2022-08-10T18:43:06.395Z,1.20
2022-08-10T18:45:36.895Z,1.23
2022-08-10T18:48:08.833Z,1.13
2022-08-10T18:50:37.153Z,1.00
2022-08-10T18:53:09.254Z,1.30
2022-08-10T18:55:46.151Z,1.08
2022-08-10T18:58:42.011Z,1.20
2022-08-10T19:01:33.924Z,1.10
2022-08-10T19:04:34.981Z,1.02
2022-08-10T19:07:04.700Z,1.25
2022-08-10T19:09:47.539Z,1.30
2022-08-10T19:12:39.419Z,1.25
2022-08-10T19:15:18.902Z,1.13
2022-08-10T19:18:10.995Z,1.35
2022-08-10T19:21:14.645Z,1.33
2022-08-10T19:24:36.461Z,1.40
2022-08-10T19:27:12.208Z,1.25
2022-08-10T19:30:09.332Z,1.30
2022-08-10T19:32:57.135Z,1.10
2022-08-10T19:36:03.616Z,1.00
2022-08-10T19:38:49.712Z,1.10
2022-08-10T19:41:31.902Z,1.30
2022-08-10T19:44:03.339Z,1.40
2022-08-10T19:46:40.982Z,1.33
2022-08-10T19:49:17.757Z,1.38
2022-08-10T19:52:05.066Z,1.20
2022-08-10T19:55:04.431Z,1.35
2022-08-10T19:57:33.944Z,1.30
2022-08-10T20:00:19.269Z,1.40
2022-08-10T20:02:56.602Z,1.50
2022-08-10T20:06:18.054Z,1.35
2022-08-10T20:08:42.792Z,1.40
2022-08-10T20:11:44.523Z,1.23
2022-08-10T20:14:21.522Z,1.33
2022-08-10T20:16:49.227Z,1.30
2022-08-10T20:19:53.668Z,1.20
2022-08-10T20:22:29.237Z,1.50
2022-08-10T20:27:58.972Z,1.45
2022-08-10T20:30:35.795Z,1.30
2022-08-10T20:33:09.238Z,1.20
2022-08-10T20:36:01.991Z,1.27
2022-08-10T20:38:56.160Z,1.20
2022-08-10T20:41:31.795Z,1.30
2022-08-10T20:44:50.843Z,1.45
2022-08-10T20:47:53.981Z,1.40
2022-08-10T20:50:50.123Z,1.40
2022-08-10T20:53:18.623Z,1.33
2022-08-10T20:55:54.339Z,1.35
2022-08-10T20:58:30.097Z,1.27
2022-08-10T21:01:14.901Z,1.40
2022-08-10T21:04:02.458Z,1.45
2022-08-10T21:06:45.384Z,1.40
2022-08-10T21:09:14.985Z,1.27
2022-08-10T21:12:06.508Z,1.35
2022-08-10T21:14:51.188Z,1.42
2022-08-10T21:17:47.793Z,1.58
2022-08-10T21:20:36.181Z,1.60
2022-08-10T21:23:05.239Z,1.30
2022-08-10T21:25:49.148Z,1.30
2022-08-10T21:32:03.520Z,1.20
2022-08-10T21:35:05.286Z,1.58
2022-08-10T21:37:56.628Z,1.40
2022-08-10T21:40:42.647Z,1.27
2022-08-10T21:43:44.455Z,1.33
2022-08-10T21:46:21.330Z,1.50
2022-08-10T21:48:57.305Z,1.42
2022-08-10T21:52:00.372Z,1.58
2022-08-10T21:54:33.631Z,1.50
2022-08-10T21:57:05.770Z,1.38
2022-08-10T21:59:44.054Z,1.50
2022-08-10T22:02:14.846Z,1.50
2022-08-10T22:04:45.610Z,1.48
2022-08-10T22:07:12.463Z,1.35
2022-08-10T22:09:44.167Z,1.50
2022-08-10T22:12:31.128Z,1.77
2022-08-10T22:15:01.611Z,1.65
2022-08-10T22:18:03.165Z,1.58
2022-08-10T22:20:34.208Z,1.85
2022-08-10T22:23:22.454Z,1.65
2022-08-10T22:26:01.229Z,1.27
2022-08-10T22:28:27.912Z,1.48
2022-08-10T22:31:24.738Z,1.50
2022-08-10T22:31:31.700Z,1.48
2022-08-10T22:34:11.178Z,1.75
2022-08-10T22:37:00.578Z,1.52
2022-08-10T22:40:10.812Z,1.30
2022-08-10T22:42:59.047Z,1.65
2022-08-10T22:45:21.302Z,1.33
2022-08-10T22:47:47.987Z,1.35
2022-08-10T22:50:21.448Z,1.55
2022-08-10T22:53:02.050Z,1.55
2022-08-10T22:55:34.121Z,1.67
2022-08-10T22:58:00.811Z,1.67
2022-08-10T23:00:30.639Z,1.48
2022-08-10T23:03:16.369Z,1.70
2022-08-10T23:05:57.358Z,1.60
2022-08-10T23:08:45.376Z,1.52
2022-08-10T23:11:25.037Z,1.45
2022-08-10T23:13:56.448Z,1.63
2022-08-10T23:16:25.812Z,1.77
2022-08-10T23:18:54.518Z,1.50
2022-08-10T23:21:21.704Z,1.73
2022-08-10T23:23:48.561Z,1.52
2022-08-10T23:26:16.794Z,1.45
2022-08-10T23:28:58.544Z,1.48
2022-08-10T23:32:01.282Z,1.60
2022-08-10T23:34:13.276Z,1.60
2022-08-10T23:36:39.971Z,1.52
2022-08-10T23:39:25.592Z,1.80
2022-08-10T23:41:56.238Z,1.48
2022-08-10T23:44:22.909Z,1.73
2022-08-10T23:46:49.627Z,1.58
2022-08-10T23:49:16.224Z,1.80
2022-08-10T23:51:55.947Z,1.33
2022-08-10T23:54:23.620Z,1.63
2022-08-10T23:57:00.965Z,1.50
2022-08-10T23:59:28.303Z,1.58
